createdAt,value
2023-03-22T00:01:17.776Z,9.70
2023-03-22T00:03:44.538Z,9.70
2023-03-22T00:06:11.705Z,9.70
2023-03-22T00:08:41.169Z,9.80
2023-03-22T00:11:08.745Z,9.80
2023-03-22T00:13:37.206Z,9.70
2023-03-22T00:16:07.367Z,9.60
2023-03-22T00:18:34.061Z,9.60
2023-03-22T00:21:01.791Z,9.70
2023-03-22T00:23:29.290Z,9.70
2023-03-22T00:25:56.561Z,9.60
2023-03-22T00:28:24.063Z,9.50
2023-03-22T00:30:57.939Z,9.50
2023-03-22T00:33:24.949Z,9.50
2023-03-22T00:36:01.813Z,9.50
2023-03-22T00:38:42.390Z,9.40
2023-03-22T00:41:13.054Z,9.50
2023-03-22T00:43:40.328Z,9.50
2023-03-22T00:46:07.551Z,9.50
2023-03-22T00:48:36.489Z,9.50
2023-03-22T00:51:04.240Z,9.50
2023-03-22T00:53:34.300Z,9.50
2023-03-22T00:56:07.036Z,9.50
2023-03-22T00:58:33.834Z,9.50
2023-03-22T01:01:00.752Z,9.50
2023-03-22T01:03:30.062Z,9.70
2023-03-22T01:05:56.792Z,9.50
2023-03-22T01:08:24.438Z,9.60
2023-03-22T01:10:52.015Z,9.60
2023-03-22T01:13:19.219Z,9.90
2023-03-22T01:15:47.859Z,9.60
2023-03-22T01:18:17.207Z,9.70
2023-03-22T01:20:46.188Z,9.70
2023-03-22T01:23:12.860Z,9.70
2023-03-22T01:25:39.520Z,9.70
2023-03-22T01:28:08.734Z,9.70
2023-03-22T01:30:35.786Z,9.80
2023-03-22T01:33:05.696Z,9.70
2023-03-22T01:35:33.174Z,9.60
2023-03-22T01:37:59.960Z,9.60
2023-03-22T01:40:32.403Z,9.70
2023-03-22T01:43:01.855Z,9.60
2023-03-22T01:45:43.236Z,9.70
2023-03-22T01:48:28.523Z,9.70
2023-03-22T01:51:03.301Z,9.80
2023-03-22T01:53:35.696Z,9.80
2023-03-22T01:56:05.855Z,9.80
2023-03-22T01:58:38.373Z,9.80
2023-03-22T02:01:09.892Z,9.90
2023-03-22T02:03:52.555Z,9.90
2023-03-22T02:06:21.158Z,9.90
2023-03-22T02:08:49.877Z,10.00
2023-03-22T02:11:21.001Z,10.00
2023-03-22T02:14:03.723Z,10.00
2023-03-22T02:16:56.990Z,10.10
2023-03-22T02:19:42.515Z,10.10
2023-03-22T02:22:38.681Z,10.10
2023-03-22T02:25:40.051Z,10.10
2023-03-22T02:28:12.788Z,10.10
2023-03-22T02:31:16.838Z,10.10
2023-03-22T02:34:02.090Z,10.10
2023-03-22T02:37:05.944Z,10.10
2023-03-22T02:39:56.140Z,10.10
2023-03-22T02:42:44.695Z,10.10
2023-03-22T02:45:18.106Z,10.10
2023-03-22T02:48:05.543Z,10.10
2023-03-22T02:50:42.936Z,10.10
2023-03-22T02:53:21.501Z,10.10
2023-03-22T02:55:57.331Z,10.10
2023-03-22T02:58:45.651Z,10.20
2023-03-22T03:01:22.016Z,10.10
2023-03-22T03:03:55.148Z,10.20
2023-03-22T03:06:25.684Z,10.10
2023-03-22T03:08:54.119Z,10.10
2023-03-22T03:11:21.361Z,10.10
2023-03-22T03:13:51.152Z,10.20
2023-03-22T03:16:22.729Z,10.20
2023-03-22T03:18:59.124Z,10.20
2023-03-22T03:21:45.195Z,10.30
2023-03-22T03:24:21.914Z,10.20
2023-03-22T03:27:07.565Z,10.20
2023-03-22T03:29:45.963Z,10.20
2023-03-22T03:32:38.372Z,10.20
2023-03-22T03:35:22.295Z,10.10
2023-03-22T03:38:08.728Z,10.20
2023-03-22T03:40:43.382Z,10.00
2023-03-22T03:43:10.835Z,10.00
2023-03-22T03:45:38.254Z,10.00
2023-03-22T03:48:19.877Z,10.10
2023-03-22T03:50:53.437Z,9.90
2023-03-22T03:53:20.260Z,9.90
2023-03-22T03:55:46.969Z,9.90
2023-03-22T03:58:13.742Z,10.10
2023-03-22T04:00:40.864Z,9.90
2023-03-22T04:03:07.752Z,9.80
2023-03-22T04:05:34.537Z,9.80
2023-03-22T04:08:03.794Z,9.80
2023-03-22T04:10:32.924Z,9.70
2023-03-22T04:12:59.644Z,9.70
2023-03-22T04:15:26.454Z,9.60
2023-03-22T04:17:55.385Z,9.60
2023-03-22T04:20:22.025Z,9.60
2023-03-22T04:22:49.106Z,9.70
2023-03-22T04:25:17.979Z,9.60
2023-03-22T04:27:51.181Z,9.50
2023-03-22T04:30:20.132Z,9.50
2023-03-22T04:32:47.907Z,9.50
2023-03-22T04:35:15.961Z,9.50
2023-03-22T04:37:43.154Z,9.40
2023-03-22T04:40:16.347Z,9.50
2023-03-22T04:42:44.794Z,9.50
2023-03-22T04:45:12.457Z,9.50
2023-03-22T04:47:39.690Z,9.50
2023-03-22T04:50:09.841Z,9.50
2023-03-22T04:52:36.477Z,9.50
2023-03-22T04:55:05.603Z,9.50
2023-03-22T04:57:32.309Z,9.40
2023-03-22T04:59:59.060Z,9.40
2023-03-22T05:02:28.365Z,9.40
2023-03-22T05:04:57.548Z,9.40
2023-03-22T05:07:24.284Z,9.40
2023-03-22T05:09:51.691Z,9.30
2023-03-22T05:12:18.650Z,9.30
2023-03-22T05:14:45.388Z,9.20
2023-03-22T05:17:12.176Z,9.30
2023-03-22T05:19:41.376Z,9.20
2023-03-22T05:22:11.939Z,9.20
2023-03-22T05:24:41.096Z,9.20
2023-03-22T05:27:08.596Z,9.20
2023-03-22T05:29:36.944Z,9.20
2023-03-22T05:32:06.554Z,9.20
2023-03-22T05:34:37.937Z,9.10
2023-03-22T05:37:06.868Z,9.10
2023-03-22T05:39:33.806Z,9.10
2023-03-22T05:42:00.469Z,9.20
2023-03-22T05:46:54.400Z,9.10
2023-03-22T05:49:21.195Z,9.20
2023-03-22T05:51:48.066Z,9.20
2023-03-22T05:54:14.756Z,9.20
2023-03-22T05:56:41.489Z,9.20
2023-03-22T05:59:08.298Z,9.40
2023-03-22T06:01:35.052Z,9.40
2023-03-22T06:04:02.074Z,9.60
2023-03-22T06:06:28.798Z,9.60
2023-03-22T06:09:04.318Z,9.60
2023-03-22T06:11:41.144Z,9.70
2023-03-22T06:14:07.939Z,9.80
2023-03-22T06:16:34.635Z,9.90
2023-03-22T06:19:01.308Z,9.90
2023-03-22T06:21:28.036Z,10.00
2023-03-22T06:23:54.740Z,10.00
2023-03-22T06:26:21.457Z,10.10
2023-03-22T06:28:50.823Z,10.20
2023-03-22T06:31:22.273Z,10.30
2023-03-22T06:33:49.031Z,10.30
2023-03-22T06:36:15.844Z,10.40
2023-03-22T06:38:44.761Z,10.40
2023-03-22T06:41:11.770Z,10.40
2023-03-22T06:43:38.558Z,10.50
2023-03-22T06:46:05.418Z,10.50
2023-03-22T06:48:34.249Z,10.50
2023-03-22T06:51:00.996Z,10.50
2023-03-22T06:53:27.739Z,10.60
2023-03-22T06:55:55.485Z,10.50
2023-03-22T06:58:22.702Z,10.60
2023-03-22T07:00:49.684Z,10.60
2023-03-22T07:03:23.952Z,10.70
2023-03-22T07:05:50.863Z,10.70
2023-03-22T07:08:17.576Z,10.70
2023-03-22T07:10:49.904Z,10.70
2023-03-22T07:13:16.720Z,10.80
2023-03-22T07:15:43.444Z,10.90
2023-03-22T07:18:10.205Z,10.90
2023-03-22T07:20:38.665Z,11.00
2023-03-22T07:23:05.678Z,11.20
2023-03-22T07:25:34.933Z,11.40
2023-03-22T07:28:01.634Z,11.50
2023-03-22T07:30:28.371Z,11.60
2023-03-22T07:32:57.570Z,11.70
2023-03-22T07:35:26.775Z,11.90
2023-03-22T07:40:23.865Z,12.00
2023-03-22T07:42:54.835Z,12.10
2023-03-22T07:45:25.072Z,12.20
2023-03-22T07:47:51.807Z,12.30
2023-03-22T07:50:19.306Z,12.40
2023-03-22T07:52:46.115Z,12.40
2023-03-22T07:55:14.219Z,12.60
2023-03-22T07:57:41.091Z,12.60
2023-03-22T08:00:10.427Z,12.60
2023-03-22T08:02:40.058Z,12.60
2023-03-22T08:05:07.503Z,12.60
2023-03-22T08:07:34.419Z,12.70
2023-03-22T08:10:01.123Z,12.60
2023-03-22T08:12:28.097Z,12.60
2023-03-22T08:14:59.541Z,12.50
2023-03-22T08:17:26.297Z,12.40
2023-03-22T08:19:56.377Z,12.40
2023-03-22T08:22:25.882Z,12.40
2023-03-22T08:24:52.830Z,12.30
2023-03-22T08:27:20.424Z,12.40
2023-03-22T08:29:49.061Z,12.60
2023-03-22T08:32:16.716Z,12.90
2023-03-22T08:34:44.209Z,12.90
2023-03-22T09:57:02.129Z,15.30
2023-03-22T09:59:34.539Z,15.40
2023-03-22T10:02:16.095Z,15.50
2023-03-22T10:05:03.424Z,15.50
2023-03-22T10:08:01.334Z,15.50
2023-03-22T10:10:28.404Z,15.50
2023-03-22T10:13:06.325Z,15.60
2023-03-22T10:15:41.004Z,15.50
2023-03-22T10:18:22.970Z,15.60
2023-03-22T10:20:57.028Z,15.60
2023-03-22T10:23:46.962Z,15.60
2023-03-22T10:26:22.070Z,15.80
2023-03-22T10:29:00.390Z,15.90
2023-03-22T10:31:29.288Z,16.00
2023-03-22T10:34:18.775Z,16.00
2023-03-22T10:36:46.918Z,15.80
2023-03-22T10:41:57.997Z,16.00
2023-03-22T10:44:28.580Z,16.30
2023-03-22T10:46:59.318Z,16.40
2023-03-22T10:49:32.054Z,16.50
2023-03-22T10:52:11.687Z,16.60
2023-03-22T10:54:38.353Z,16.80
2023-03-22T11:22:49.443Z,16.70
2023-03-22T11:25:29.311Z,16.90
2023-03-22T11:28:08.759Z,16.90
2023-03-22T11:30:36.158Z,16.60
2023-03-22T11:33:19.619Z,16.50
2023-03-22T11:35:53.663Z,16.30
2023-03-22T11:38:41.130Z,16.10
2023-03-22T11:41:26.793Z,16.10
2023-03-22T11:43:56.990Z,16.00
2023-03-22T11:46:24.351Z,16.00
2023-03-22T11:48:57.687Z,16.10
2023-03-22T11:51:36.091Z,15.90
2023-03-22T11:54:28.515Z,15.80
2023-03-22T11:57:01.270Z,15.90
2023-03-22T11:59:30.718Z,15.90
2023-03-22T12:02:29.545Z,16.00
2023-03-22T12:05:18.455Z,16.00
2023-03-22T12:07:48.049Z,16.00
2023-03-22T12:10:22.809Z,15.90
2023-03-22T12:13:04.428Z,15.80
2023-03-22T12:15:58.871Z,15.80
2023-03-22T12:18:47.395Z,15.80
2023-03-22T12:21:16.675Z,15.90
2023-03-22T12:23:45.829Z,15.90
2023-03-22T12:26:12.617Z,15.90
2023-03-22T12:28:52.877Z,15.80
2023-03-22T12:31:26.606Z,15.80
2023-03-22T12:33:58.732Z,15.60
2023-03-22T12:36:41.474Z,15.50
2023-03-22T12:39:15.211Z,15.60
2023-03-22T12:41:49.571Z,15.40
2023-03-22T12:44:29.549Z,15.40
2023-03-22T12:46:57.618Z,15.40
2023-03-22T12:50:04.860Z,15.40
2023-03-22T12:52:57.073Z,15.50
2023-03-22T12:55:34.159Z,15.30
2023-03-22T12:58:01.564Z,15.10
2023-03-22T13:00:35.458Z,15.30
2023-03-22T13:03:19.945Z,15.20
2023-03-22T13:05:53.026Z,15.20
2023-03-22T13:08:22.817Z,15.20
2023-03-22T13:11:02.058Z,15.20
2023-03-22T13:13:28.681Z,15.10
2023-03-22T13:16:13.407Z,15.10
2023-03-22T13:18:58.512Z,15.00
2023-03-22T13:21:29.319Z,14.80
2023-03-22T13:24:11.297Z,14.80
2023-03-22T13:26:48.202Z,14.60
2023-03-22T13:29:24.444Z,14.60
2023-03-22T13:31:51.293Z,14.70
2023-03-22T13:34:39.159Z,14.60
2023-03-22T13:37:11.907Z,14.60
2023-03-22T13:39:39.308Z,14.70
2023-03-22T13:42:21.794Z,14.70
2023-03-22T13:45:03.938Z,14.80
2023-03-22T13:47:30.704Z,14.90
2023-03-22T13:50:07.536Z,14.90
2023-03-22T13:52:38.570Z,14.80
2023-03-22T13:55:33.984Z,14.90
2023-03-22T13:58:01.742Z,14.80
2023-03-22T14:00:34.128Z,14.80
2023-03-22T14:03:23.220Z,14.80
2023-03-22T14:06:04.364Z,14.80
2023-03-22T14:08:34.554Z,14.80
2023-03-22T14:11:20.249Z,14.90
2023-03-22T14:13:56.729Z,14.90
2023-03-22T14:16:43.494Z,14.90
2023-03-22T14:19:21.306Z,15.00
